sensor_id;sensor_type;location;lat;lon;timestamp;temperature;humidity
50570;DHT22;36525;49.398;7.614;2024-02-26T00:02:09;7.70;99.90
50570;DHT22;36525;49.398;7.614;2024-02-26T00:04:36;7.60;99.90
50570;DHT22;36525;49.398;7.614;2024-02-26T00:07:03;7.50;99.90
50570;DHT22;36525;49.398;7.614;2024-02-26T00:09:30;7.40;99.90
50570;DHT22;36525;49.398;7.614;2024-02-26T00:11:57;7.40;99.90
50570;DHT22;36525;49.398;7.614;2024-02-26T00:14:24;7.40;99.90
50570;DHT22;36525;49.398;7.614;2024-02-26T00:16:51;7.40;99.90
50570;DHT22;36525;49.398;7.614;2024-02-26T00:19:18;7.30;99.90
50570;DHT22;36525;49.398;7.614;2024-02-26T00:21:45;7.30;99.90
50570;DHT22;36525;49.398;7.614;2024-02-26T00:24:11;7.20;99.90
50570;DHT22;36525;49.398;7.614;2024-02-26T00:26:38;7.10;99.90
50570;DHT22;36525;49.398;7.614;2024-02-26T00:29:05;7.10;99.90
50570;DHT22;36525;49.398;7.614;2024-02-26T00:31:32;7.10;99.90
50570;DHT22;36525;49.398;7.614;2024-02-26T00:33:59;7.10;99.90
50570;DHT22;36525;49.398;7.614;2024-02-26T00:36:26;7.00;99.90
50570;DHT22;36525;49.398;7.614;2024-02-26T00:38:52;7.00;99.90
50570;DHT22;36525;49.398;7.614;2024-02-26T00:41:19;7.00;99.90
50570;DHT22;36525;49.398;7.614;2024-02-26T00:43:46;7.00;99.90
50570;DHT22;36525;49.398;7.614;2024-02-26T00:46:13;7.00;99.90
50570;DHT22;36525;49.398;7.614;2024-02-26T00:48:40;7.00;99.90
50570;DHT22;36525;49.398;7.614;2024-02-26T00:51:07;6.80;99.90
50570;DHT22;36525;49.398;7.614;2024-02-26T00:53:34;6.70;99.90
50570;DHT22;36525;49.398;7.614;2024-02-26T00:56:01;6.60;99.90
50570;DHT22;36525;49.398;7.614;2024-02-26T00:58:28;6.60;99.90
50570;DHT22;36525;49.398;7.614;2024-02-26T01:00:55;6.60;99.90
50570;DHT22;36525;49.398;7.614;2024-02-26T01:03:21;6.50;99.90
50570;DHT22;36525;49.398;7.614;2024-02-26T01:05:48;6.50;99.90
50570;DHT22;36525;49.398;7.614;2024-02-26T01:08:16;6.40;99.90
50570;DHT22;36525;49.398;7.614;2024-02-26T01:10:43;6.30;99.90
50570;DHT22;36525;49.398;7.614;2024-02-26T01:13:09;6.30;99.90
50570;DHT22;36525;49.398;7.614;2024-02-26T01:15:36;6.30;99.90
50570;DHT22;36525;49.398;7.614;2024-02-26T01:18:03;6.20;99.90
50570;DHT22;36525;49.398;7.614;2024-02-26T01:20:30;6.30;99.90
50570;DHT22;36525;49.398;7.614;2024-02-26T01:22:57;6.20;99.90
50570;DHT22;36525;49.398;7.614;2024-02-26T01:25:24;6.30;99.90
50570;DHT22;36525;49.398;7.614;2024-02-26T01:27:50;6.20;99.90
50570;DHT22;36525;49.398;7.614;2024-02-26T01:30:17;6.20;99.90
50570;DHT22;36525;49.398;7.614;2024-02-26T01:32:45;6.10;99.90
50570;DHT22;36525;49.398;7.614;2024-02-26T01:35:12;6.10;99.90
50570;DHT22;36525;49.398;7.614;2024-02-26T01:37:38;6.00;99.90
50570;DHT22;36525;49.398;7.614;2024-02-26T01:40:05;6.00;99.90
50570;DHT22;36525;49.398;7.614;2024-02-26T01:42:33;6.10;99.90
50570;DHT22;36525;49.398;7.614;2024-02-26T01:45:00;6.10;99.90
50570;DHT22;36525;49.398;7.614;2024-02-26T01:47:27;6.00;99.90
50570;DHT22;36525;49.398;7.614;2024-02-26T01:49:55;5.90;99.90
50570;DHT22;36525;49.398;7.614;2024-02-26T01:52:22;5.90;99.90
50570;DHT22;36525;49.398;7.614;2024-02-26T01:54:49;5.90;99.90
50570;DHT22;36525;49.398;7.614;2024-02-26T01:57:16;5.90;99.90
50570;DHT22;36525;49.398;7.614;2024-02-26T01:59:44;5.90;99.90
50570;DHT22;36525;49.398;7.614;2024-02-26T02:02:11;5.90;99.90
50570;DHT22;36525;49.398;7.614;2024-02-26T02:04:38;5.90;99.90
50570;DHT22;36525;49.398;7.614;2024-02-26T02:07:05;5.90;99.90
50570;DHT22;36525;49.398;7.614;2024-02-26T02:09:32;5.80;99.90
50570;DHT22;36525;49.398;7.614;2024-02-26T02:11:59;5.80;99.90
50570;DHT22;36525;49.398;7.614;2024-02-26T02:14:27;5.80;99.90
50570;DHT22;36525;49.398;7.614;2024-02-26T02:16:53;5.70;99.90
50570;DHT22;36525;49.398;7.614;2024-02-26T02:19:20;5.70;99.90
50570;DHT22;36525;49.398;7.614;2024-02-26T02:21:47;5.70;99.90
50570;DHT22;36525;49.398;7.614;2024-02-26T02:24:14;5.70;99.90
50570;DHT22;36525;49.398;7.614;2024-02-26T02:26:41;5.60;99.90
50570;DHT22;36525;49.398;7.614;2024-02-26T02:29:08;5.60;99.90
50570;DHT22;36525;49.398;7.614;2024-02-26T02:31:36;5.50;99.90
50570;DHT22;36525;49.398;7.614;2024-02-26T02:34:03;5.40;99.90
50570;DHT22;36525;49.398;7.614;2024-02-26T02:36:30;5.40;99.90
50570;DHT22;36525;49.398;7.614;2024-02-26T02:38:57;5.40;99.90
50570;DHT22;36525;49.398;7.614;2024-02-26T02:41:23;5.30;99.90
50570;DHT22;36525;49.398;7.614;2024-02-26T02:43:50;5.30;99.90
50570;DHT22;36525;49.398;7.614;2024-02-26T02:46:17;5.30;99.90
50570;DHT22;36525;49.398;7.614;2024-02-26T02:48:44;5.20;99.90
50570;DHT22;36525;49.398;7.614;2024-02-26T02:51:11;5.20;99.90
50570;DHT22;36525;49.398;7.614;2024-02-26T02:53:38;5.20;99.90
50570;DHT22;36525;49.398;7.614;2024-02-26T02:56:05;5.10;99.90
50570;DHT22;36525;49.398;7.614;2024-02-26T02:58:32;5.10;99.90
50570;DHT22;36525;49.398;7.614;2024-02-26T03:00:59;5.10;99.90
50570;DHT22;36525;49.398;7.614;2024-02-26T03:03:27;5.10;99.90
50570;DHT22;36525;49.398;7.614;2024-02-26T03:05:55;5.00;99.90
50570;DHT22;36525;49.398;7.614;2024-02-26T03:08:23;5.00;99.90
50570;DHT22;36525;49.398;7.614;2024-02-26T03:10:52;5.00;99.90
50570;DHT22;36525;49.398;7.614;2024-02-26T03:13:19;5.00;99.90
50570;DHT22;36525;49.398;7.614;2024-02-26T03:15:46;5.10;99.90
50570;DHT22;36525;49.398;7.614;2024-02-26T03:18:13;5.10;99.90
50570;DHT22;36525;49.398;7.614;2024-02-26T03:20:40;5.10;99.90
50570;DHT22;36525;49.398;7.614;2024-02-26T03:23:07;5.10;99.90
50570;DHT22;36525;49.398;7.614;2024-02-26T03:25:36;5.10;99.90
50570;DHT22;36525;49.398;7.614;2024-02-26T03:28:03;5.10;99.90
50570;DHT22;36525;49.398;7.614;2024-02-26T03:30:30;5.20;99.90
50570;DHT22;36525;49.398;7.614;2024-02-26T03:32:57;5.10;99.90
50570;DHT22;36525;49.398;7.614;2024-02-26T03:35:23;5.10;99.90
50570;DHT22;36525;49.398;7.614;2024-02-26T03:37:50;5.10;99.90
50570;DHT22;36525;49.398;7.614;2024-02-26T03:40:18;5.00;99.90
50570;DHT22;36525;49.398;7.614;2024-02-26T03:42:46;5.20;99.90
50570;DHT22;36525;49.398;7.614;2024-02-26T03:45:13;5.10;99.90
50570;DHT22;36525;49.398;7.614;2024-02-26T03:47:40;5.20;99.90
50570;DHT22;36525;49.398;7.614;2024-02-26T03:50:07;5.20;99.90
50570;DHT22;36525;49.398;7.614;2024-02-26T03:52:34;5.10;99.90
50570;DHT22;36525;49.398;7.614;2024-02-26T03:55:01;5.10;99.90
50570;DHT22;36525;49.398;7.614;2024-02-26T03:57:28;5.20;99.90
50570;DHT22;36525;49.398;7.614;2024-02-26T03:59:54;5.10;99.90
50570;DHT22;36525;49.398;7.614;2024-02-26T04:02:21;5.10;99.90
50570;DHT22;36525;49.398;7.614;2024-02-26T04:04:49;5.10;99.90
50570;DHT22;36525;49.398;7.614;2024-02-26T04:07:16;5.20;99.90
50570;DHT22;36525;49.398;7.614;2024-02-26T04:09:43;5.20;99.90
50570;DHT22;36525;49.398;7.614;2024-02-26T04:12:10;5.30;99.90
50570;DHT22;36525;49.398;7.614;2024-02-26T04:14:37;5.30;99.90
50570;DHT22;36525;49.398;7.614;2024-02-26T04:17:04;5.40;99.90
50570;DHT22;36525;49.398;7.614;2024-02-26T04:19:31;5.30;99.90
50570;DHT22;36525;49.398;7.614;2024-02-26T04:21:58;5.40;99.90
50570;DHT22;36525;49.398;7.614;2024-02-26T04:24:25;5.50;99.90
50570;DHT22;36525;49.398;7.614;2024-02-26T04:26:52;5.50;99.90
50570;DHT22;36525;49.398;7.614;2024-02-26T04:32:07;5.60;99.90
50570;DHT22;36525;49.398;7.614;2024-02-26T04:34:34;5.60;99.90
50570;DHT22;36525;49.398;7.614;2024-02-26T04:37:01;5.50;99.90
50570;DHT22;36525;49.398;7.614;2024-02-26T04:39:28;5.60;99.90
50570;DHT22;36525;49.398;7.614;2024-02-26T04:41:55;5.50;99.90
50570;DHT22;36525;49.398;7.614;2024-02-26T04:44:22;5.60;99.90
50570;DHT22;36525;49.398;7.614;2024-02-26T04:46:48;5.60;99.90
50570;DHT22;36525;49.398;7.614;2024-02-26T04:49:15;5.70;99.90
50570;DHT22;36525;49.398;7.614;2024-02-26T04:51:42;5.70;99.90
50570;DHT22;36525;49.398;7.614;2024-02-26T04:54:09;5.70;99.90
50570;DHT22;36525;49.398;7.614;2024-02-26T04:56:36;5.70;99.90
50570;DHT22;36525;49.398;7.614;2024-02-26T04:59:02;5.70;99.90
50570;DHT22;36525;49.398;7.614;2024-02-26T05:01:29;5.70;99.90
50570;DHT22;36525;49.398;7.614;2024-02-26T05:03:56;5.70;99.90
50570;DHT22;36525;49.398;7.614;2024-02-26T05:06:23;5.70;99.90
50570;DHT22;36525;49.398;7.614;2024-02-26T05:08:50;5.60;99.90
50570;DHT22;36525;49.398;7.614;2024-02-26T05:11:17;5.60;99.90
50570;DHT22;36525;49.398;7.614;2024-02-26T05:13:45;5.70;99.90
50570;DHT22;36525;49.398;7.614;2024-02-26T05:16:12;5.70;99.90
50570;DHT22;36525;49.398;7.614;2024-02-26T05:18:38;5.70;99.90
50570;DHT22;36525;49.398;7.614;2024-02-26T05:21:06;5.70;99.90
50570;DHT22;36525;49.398;7.614;2024-02-26T05:23:32;5.70;99.90
50570;DHT22;36525;49.398;7.614;2024-02-26T05:25:59;5.70;99.90
50570;DHT22;36525;49.398;7.614;2024-02-26T05:28:26;5.70;99.90
50570;DHT22;36525;49.398;7.614;2024-02-26T05:30:53;5.70;99.90
50570;DHT22;36525;49.398;7.614;2024-02-26T05:33:19;5.80;99.90
50570;DHT22;36525;49.398;7.614;2024-02-26T05:35:47;5.80;99.90
50570;DHT22;36525;49.398;7.614;2024-02-26T05:38:13;5.80;99.90
50570;DHT22;36525;49.398;7.614;2024-02-26T05:40:40;5.80;99.90
50570;DHT22;36525;49.398;7.614;2024-02-26T05:43:07;5.80;99.90
50570;DHT22;36525;49.398;7.614;2024-02-26T05:45:34;5.80;99.90
50570;DHT22;36525;49.398;7.614;2024-02-26T05:48:00;5.80;99.90
50570;DHT22;36525;49.398;7.614;2024-02-26T05:50:27;5.80;99.90
50570;DHT22;36525;49.398;7.614;2024-02-26T05:52:54;5.80;99.90
50570;DHT22;36525;49.398;7.614;2024-02-26T05:55:21;5.80;99.90
50570;DHT22;36525;49.398;7.614;2024-02-26T05:57:48;5.70;99.90
50570;DHT22;36525;49.398;7.614;2024-02-26T06:00:16;5.70;99.90
50570;DHT22;36525;49.398;7.614;2024-02-26T06:02:43;5.60;99.90
50570;DHT22;36525;49.398;7.614;2024-02-26T06:05:10;5.70;99.90
50570;DHT22;36525;49.398;7.614;2024-02-26T06:07:36;5.60;99.90
50570;DHT22;36525;49.398;7.614;2024-02-26T06:10:03;5.60;99.90
50570;DHT22;36525;49.398;7.614;2024-02-26T06:12:31;5.60;99.90
50570;DHT22;36525;49.398;7.614;2024-02-26T06:14:59;5.60;99.90
50570;DHT22;36525;49.398;7.614;2024-02-26T06:17:28;5.60;99.90
50570;DHT22;36525;49.398;7.614;2024-02-26T06:19:54;5.60;99.90
50570;DHT22;36525;49.398;7.614;2024-02-26T06:22:21;5.60;99.90
50570;DHT22;36525;49.398;7.614;2024-02-26T06:24:48;5.60;99.90
50570;DHT22;36525;49.398;7.614;2024-02-26T06:27:15;5.60;99.90
50570;DHT22;36525;49.398;7.614;2024-02-26T06:29:42;5.60;99.90
50570;DHT22;36525;49.398;7.614;2024-02-26T06:32:09;5.60;99.90
50570;DHT22;36525;49.398;7.614;2024-02-26T06:34:36;5.60;99.90
50570;DHT22;36525;49.398;7.614;2024-02-26T06:37:05;5.70;99.90
50570;DHT22;36525;49.398;7.614;2024-02-26T06:39:32;5.70;99.90
50570;DHT22;36525;49.398;7.614;2024-02-26T06:41:59;5.70;99.90
50570;DHT22;36525;49.398;7.614;2024-02-26T06:44:29;5.70;99.90
50570;DHT22;36525;49.398;7.614;2024-02-26T06:46:58;5.80;99.90
50570;DHT22;36525;49.398;7.614;2024-02-26T06:49:26;5.80;99.90
50570;DHT22;36525;49.398;7.614;2024-02-26T06:51:54;5.80;99.90
50570;DHT22;36525;49.398;7.614;2024-02-26T06:54:20;5.80;99.90
50570;DHT22;36525;49.398;7.614;2024-02-26T06:56:47;5.80;99.90
50570;DHT22;36525;49.398;7.614;2024-02-26T06:59:14;5.80;99.90
50570;DHT22;36525;49.398;7.614;2024-02-26T07:01:41;5.90;99.90
50570;DHT22;36525;49.398;7.614;2024-02-26T07:04:08;5.80;99.90
50570;DHT22;36525;49.398;7.614;2024-02-26T07:06:37;5.80;99.90
50570;DHT22;36525;49.398;7.614;2024-02-26T07:09:04;5.90;99.90
50570;DHT22;36525;49.398;7.614;2024-02-26T07:11:31;5.80;99.90
50570;DHT22;36525;49.398;7.614;2024-02-26T07:13:58;5.90;99.90
50570;DHT22;36525;49.398;7.614;2024-02-26T07:16:25;5.90;99.90
50570;DHT22;36525;49.398;7.614;2024-02-26T07:18:53;5.90;99.90
50570;DHT22;36525;49.398;7.614;2024-02-26T07:21:19;5.90;99.90
50570;DHT22;36525;49.398;7.614;2024-02-26T07:23:46;5.90;99.90
50570;DHT22;36525;49.398;7.614;2024-02-26T07:26:13;6.00;99.90
50570;DHT22;36525;49.398;7.614;2024-02-26T07:28:40;6.00;99.90
50570;DHT22;36525;49.398;7.614;2024-02-26T07:31:07;6.00;99.90
50570;DHT22;36525;49.398;7.614;2024-02-26T07:33:33;6.00;99.90
50570;DHT22;36525;49.398;7.614;2024-02-26T07:36:00;6.10;99.90
50570;DHT22;36525;49.398;7.614;2024-02-26T07:38:27;6.10;99.90
50570;DHT22;36525;49.398;7.614;2024-02-26T07:41:08;6.10;99.90
50570;DHT22;36525;49.398;7.614;2024-02-26T07:43:35;6.10;99.90
50570;DHT22;36525;49.398;7.614;2024-02-26T07:46:02;6.10;99.90
50570;DHT22;36525;49.398;7.614;2024-02-26T07:48:29;6.10;99.90
50570;DHT22;36525;49.398;7.614;2024-02-26T07:50:56;6.10;99.90
50570;DHT22;36525;49.398;7.614;2024-02-26T07:53:24;6.20;99.90
50570;DHT22;36525;49.398;7.614;2024-02-26T07:55:50;6.20;99.90
50570;DHT22;36525;49.398;7.614;2024-02-26T07:58:17;6.40;99.90
50570;DHT22;36525;49.398;7.614;2024-02-26T08:00:44;6.30;99.90
50570;DHT22;36525;49.398;7.614;2024-02-26T08:03:12;6.30;99.90
50570;DHT22;36525;49.398;7.614;2024-02-26T08:05:42;6.30;99.90
50570;DHT22;36525;49.398;7.614;2024-02-26T08:08:10;6.30;99.90
50570;DHT22;36525;49.398;7.614;2024-02-26T08:10:36;6.40;99.90
50570;DHT22;36525;49.398;7.614;2024-02-26T08:13:03;6.40;99.90
50570;DHT22;36525;49.398;7.614;2024-02-26T08:15:34;6.50;99.90
50570;DHT22;36525;49.398;7.614;2024-02-26T08:18:04;6.50;99.90
50570;DHT22;36525;49.398;7.614;2024-02-26T08:20:31;6.60;99.90
50570;DHT22;36525;49.398;7.614;2024-02-26T08:22:58;6.70;99.90
50570;DHT22;36525;49.398;7.614;2024-02-26T08:25:25;6.80;99.90
50570;DHT22;36525;49.398;7.614;2024-02-26T08:27:52;6.90;99.90
50570;DHT22;36525;49.398;7.614;2024-02-26T08:30:19;7.00;99.90
50570;DHT22;36525;49.398;7.614;2024-02-26T08:32:47;6.90;99.90
50570;DHT22;36525;49.398;7.614;2024-02-26T08:35:18;7.00;99.90
50570;DHT22;36525;49.398;7.614;2024-02-26T08:37:45;7.00;99.90
50570;DHT22;36525;49.398;7.614;2024-02-26T08:40:13;7.20;99.90
50570;DHT22;36525;49.398;7.614;2024-02-26T08:42:40;7.30;99.90
50570;DHT22;36525;49.398;7.614;2024-02-26T08:45:08;7.40;99.90
50570;DHT22;36525;49.398;7.614;2024-02-26T08:47:35;7.50;99.90
50570;DHT22;36525;49.398;7.614;2024-02-26T08:50:02;7.60;99.90
50570;DHT22;36525;49.398;7.614;2024-02-26T08:52:30;7.70;99.90
50570;DHT22;36525;49.398;7.614;2024-02-26T08:54:57;7.80;99.90
50570;DHT22;36525;49.398;7.614;2024-02-26T08:57:24;7.80;99.90
50570;DHT22;36525;49.398;7.614;2024-02-26T08:59:53;7.80;99.90
50570;DHT22;36525;49.398;7.614;2024-02-26T09:02:20;7.90;99.90
50570;DHT22;36525;49.398;7.614;2024-02-26T09:04:47;8.00;99.90
50570;DHT22;36525;49.398;7.614;2024-02-26T09:07:14;8.20;99.90
50570;DHT22;36525;49.398;7.614;2024-02-26T09:09:41;8.10;99.90
50570;DHT22;36525;49.398;7.614;2024-02-26T09:12:08;8.20;99.90
50570;DHT22;36525;49.398;7.614;2024-02-26T09:14:35;8.00;99.90
50570;DHT22;36525;49.398;7.614;2024-02-26T09:17:02;7.90;99.90
50570;DHT22;36525;49.398;7.614;2024-02-26T09:19:29;7.80;99.90
50570;DHT22;36525;49.398;7.614;2024-02-26T09:21:56;7.80;99.90
50570;DHT22;36525;49.398;7.614;2024-02-26T09:24:24;7.80;99.90
50570;DHT22;36525;49.398;7.614;2024-02-26T09:26:53;7.90;99.90
50570;DHT22;36525;49.398;7.614;2024-02-26T09:29:20;8.10;99.90
50570;DHT22;36525;49.398;7.614;2024-02-26T09:31:47;8.20;99.90
50570;DHT22;36525;49.398;7.614;2024-02-26T09:34:14;8.30;99.90
50570;DHT22;36525;49.398;7.614;2024-02-26T09:36:42;8.40;99.90
50570;DHT22;36525;49.398;7.614;2024-02-26T09:39:10;8.40;99.90
50570;DHT22;36525;49.398;7.614;2024-02-26T09:41:38;8.60;99.90
50570;DHT22;36525;49.398;7.614;2024-02-26T09:44:05;8.70;99.90
50570;DHT22;36525;49.398;7.614;2024-02-26T09:46:32;8.80;99.90
50570;DHT22;36525;49.398;7.614;2024-02-26T09:48:59;8.80;99.90
50570;DHT22;36525;49.398;7.614;2024-02-26T09:51:27;8.90;99.90
50570;DHT22;36525;49.398;7.614;2024-02-26T09:53:55;8.80;99.90
50570;DHT22;36525;49.398;7.614;2024-02-26T09:56:22;9.10;99.90
50570;DHT22;36525;49.398;7.614;2024-02-26T09:58:49;9.40;99.90
50570;DHT22;36525;49.398;7.614;2024-02-26T10:01:20;9.50;99.90
50570;DHT22;36525;49.398;7.614;2024-02-26T10:03:52;9.70;99.90
50570;DHT22;36525;49.398;7.614;2024-02-26T10:06:22;9.80;99.90
50570;DHT22;36525;49.398;7.614;2024-02-26T10:08:49;9.80;99.90
50570;DHT22;36525;49.398;7.614;2024-02-26T10:11:16;9.80;99.90
50570;DHT22;36525;49.398;7.614;2024-02-26T10:13:43;9.90;99.90
50570;DHT22;36525;49.398;7.614;2024-02-26T10:16:10;10.00;99.90
50570;DHT22;36525;49.398;7.614;2024-02-26T10:18:46;10.10;99.90
50570;DHT22;36525;49.398;7.614;2024-02-26T10:21:25;10.20;99.90
50570;DHT22;36525;49.398;7.614;2024-02-26T10:23:52;10.20;99.90
50570;DHT22;36525;49.398;7.614;2024-02-26T10:26:19;10.30;99.90
50570;DHT22;36525;49.398;7.614;2024-02-26T10:28:46;10.30;99.90
50570;DHT22;36525;49.398;7.614;2024-02-26T10:31:17;10.30;99.90
50570;DHT22;36525;49.398;7.614;2024-02-26T10:33:45;10.40;99.90
50570;DHT22;36525;49.398;7.614;2024-02-26T10:36:12;10.40;99.90
50570;DHT22;36525;49.398;7.614;2024-02-26T10:38:39;10.40;99.90
50570;DHT22;36525;49.398;7.614;2024-02-26T10:41:06;10.60;99.90
50570;DHT22;36525;49.398;7.614;2024-02-26T10:43:33;10.60;99.90
50570;DHT22;36525;49.398;7.614;2024-02-26T10:46:00;10.70;99.90
50570;DHT22;36525;49.398;7.614;2024-02-26T10:48:26;10.70;99.90
50570;DHT22;36525;49.398;7.614;2024-02-26T10:50:54;10.90;99.90
50570;DHT22;36525;49.398;7.614;2024-02-26T10:53:23;11.20;99.90
50570;DHT22;36525;49.398;7.614;2024-02-26T10:55:57;11.20;99.90
50570;DHT22;36525;49.398;7.614;2024-02-26T10:58:27;11.30;99.90
50570;DHT22;36525;49.398;7.614;2024-02-26T11:00:56;11.20;99.90
50570;DHT22;36525;49.398;7.614;2024-02-26T11:03:24;11.50;99.90
50570;DHT22;36525;49.398;7.614;2024-02-26T11:05:51;11.70;99.90
50570;DHT22;36525;49.398;7.614;2024-02-26T11:08:19;11.90;99.90
50570;DHT22;36525;49.398;7.614;2024-02-26T11:10:52;12.10;99.90
50570;DHT22;36525;49.398;7.614;2024-02-26T11:13:21;12.30;99.90
50570;DHT22;36525;49.398;7.614;2024-02-26T11:15:48;12.20;99.90
50570;DHT22;36525;49.398;7.614;2024-02-26T11:18:15;12.40;99.90
50570;DHT22;36525;49.398;7.614;2024-02-26T11:20:43;12.50;99.90
50570;DHT22;36525;49.398;7.614;2024-02-26T11:23:11;12.50;99.90
50570;DHT22;36525;49.398;7.614;2024-02-26T11:25:38;12.50;99.90
50570;DHT22;36525;49.398;7.614;2024-02-26T11:28:06;12.50;99.90
50570;DHT22;36525;49.398;7.614;2024-02-26T11:30:37;12.50;99.90
50570;DHT22;36525;49.398;7.614;2024-02-26T11:33:10;12.30;99.90
50570;DHT22;36525;49.398;7.614;2024-02-26T11:35:39;12.50;99.90
50570;DHT22;36525;49.398;7.614;2024-02-26T11:38:06;12.60;99.90
50570;DHT22;36525;49.398;7.614;2024-02-26T11:40:37;12.60;99.90
50570;DHT22;36525;49.398;7.614;2024-02-26T11:43:07;12.20;99.90
50570;DHT22;36525;49.398;7.614;2024-02-26T11:48:13;11.90;99.90
50570;DHT22;36525;49.398;7.614;2024-02-26T11:50:42;12.00;99.90
50570;DHT22;36525;49.398;7.614;2024-02-26T11:58:39;12.40;99.90
50570;DHT22;36525;49.398;7.614;2024-02-26T12:04:02;12.20;99.90
50570;DHT22;36525;49.398;7.614;2024-02-26T12:06:31;12.20;99.90
50570;DHT22;36525;49.398;7.614;2024-02-26T12:09:05;12.30;99.90
50570;DHT22;36525;49.398;7.614;2024-02-26T12:11:32;12.70;99.90
50570;DHT22;36525;49.398;7.614;2024-02-26T12:13:59;12.80;99.90
50570;DHT22;36525;49.398;7.614;2024-02-26T12:19:06;13.00;99.90
50570;DHT22;36525;49.398;7.614;2024-02-26T12:21:37;12.90;99.90
50570;DHT22;36525;49.398;7.614;2024-02-26T12:24:14;12.70;99.90
50570;DHT22;36525;49.398;7.614;2024-02-26T12:26:42;12.50;99.90
50570;DHT22;36525;49.398;7.614;2024-02-26T12:29:09;12.60;99.90
50570;DHT22;36525;49.398;7.614;2024-02-26T12:31:37;12.60;99.90
50570;DHT22;36525;49.398;7.614;2024-02-26T12:34:06;12.70;99.90
50570;DHT22;36525;49.398;7.614;2024-02-26T12:36:33;12.50;99.90
50570;DHT22;36525;49.398;7.614;2024-02-26T12:39:01;12.50;99.90
50570;DHT22;36525;49.398;7.614;2024-02-26T12:41:29;12.40;99.90
50570;DHT22;36525;49.398;7.614;2024-02-26T12:43:57;12.30;99.90
50570;DHT22;36525;49.398;7.614;2024-02-26T12:46:24;12.10;99.90
50570;DHT22;36525;49.398;7.614;2024-02-26T12:48:51;11.90;99.90
50570;DHT22;36525;49.398;7.614;2024-02-26T12:51:18;11.90;99.90
50570;DHT22;36525;49.398;7.614;2024-02-26T12:53:45;11.80;99.90
50570;DHT22;36525;49.398;7.614;2024-02-26T12:56:13;11.70;99.90
50570;DHT22;36525;49.398;7.614;2024-02-26T12:58:40;11.50;99.90
50570;DHT22;36525;49.398;7.614;2024-02-26T13:01:07;11.40;99.90
50570;DHT22;36525;49.398;7.614;2024-02-26T13:03:34;11.30;99.90
50570;DHT22;36525;49.398;7.614;2024-02-26T13:06:02;11.20;99.90
50570;DHT22;36525;49.398;7.614;2024-02-26T13:08:31;11.20;99.90
50570;DHT22;36525;49.398;7.614;2024-02-26T13:10:59;11.20;99.90
50570;DHT22;36525;49.398;7.614;2024-02-26T13:13:26;11.10;99.90
50570;DHT22;36525;49.398;7.614;2024-02-26T13:16:03;11.10;99.90
50570;DHT22;36525;49.398;7.614;2024-02-26T13:18:31;11.00;99.90
50570;DHT22;36525;49.398;7.614;2024-02-26T13:21:08;11.00;99.90
50570;DHT22;36525;49.398;7.614;2024-02-26T13:23:36;10.90;99.90
50570;DHT22;36525;49.398;7.614;2024-02-26T13:26:06;10.90;99.90
50570;DHT22;36525;49.398;7.614;2024-02-26T13:28:34;10.90;99.90
50570;DHT22;36525;49.398;7.614;2024-02-26T13:31:01;11.00;99.90
50570;DHT22;36525;49.398;7.614;2024-02-26T13:33:30;10.90;99.90
50570;DHT22;36525;49.398;7.614;2024-02-26T13:35:58;10.90;99.90
50570;DHT22;36525;49.398;7.614;2024-02-26T13:38:26;11.00;99.90
50570;DHT22;36525;49.398;7.614;2024-02-26T13:40:53;11.20;99.90
50570;DHT22;36525;49.398;7.614;2024-02-26T13:43:20;11.30;99.90
50570;DHT22;36525;49.398;7.614;2024-02-26T13:45:47;11.50;99.90
50570;DHT22;36525;49.398;7.614;2024-02-26T13:48:15;11.60;99.90
50570;DHT22;36525;49.398;7.614;2024-02-26T13:50:42;11.90;99.90
50570;DHT22;36525;49.398;7.614;2024-02-26T13:53:10;12.00;99.90
50570;DHT22;36525;49.398;7.614;2024-02-26T13:55:37;12.10;99.90
50570;DHT22;36525;49.398;7.614;2024-02-26T13:58:06;12.30;99.90
50570;DHT22;36525;49.398;7.614;2024-02-26T14:00:33;12.50;99.90
50570;DHT22;36525;49.398;7.614;2024-02-26T14:03:01;12.90;99.90
50570;DHT22;36525;49.398;7.614;2024-02-26T14:05:29;13.20;99.90
50570;DHT22;36525;49.398;7.614;2024-02-26T14:07:56;13.40;99.90
50570;DHT22;36525;49.398;7.614;2024-02-26T14:10:24;13.20;99.90
50570;DHT22;36525;49.398;7.614;2024-02-26T14:12:50;12.80;99.90
50570;DHT22;36525;49.398;7.614;2024-02-26T14:15:17;12.60;99.90
50570;DHT22;36525;49.398;7.614;2024-02-26T14:17:44;12.50;99.90
50570;DHT22;36525;49.398;7.614;2024-02-26T14:20:12;12.40;99.90
50570;DHT22;36525;49.398;7.614;2024-02-26T14:22:39;12.20;99.90
50570;DHT22;36525;49.398;7.614;2024-02-26T14:25:06;12.10;99.90
50570;DHT22;36525;49.398;7.614;2024-02-26T14:27:35;12.00;99.90
50570;DHT22;36525;49.398;7.614;2024-02-26T14:30:02;11.90;99.90
50570;DHT22;36525;49.398;7.614;2024-02-26T14:32:29;11.80;99.90
50570;DHT22;36525;49.398;7.614;2024-02-26T14:35:01;11.70;99.90
50570;DHT22;36525;49.398;7.614;2024-02-26T14:37:29;11.70;99.90
50570;DHT22;36525;49.398;7.614;2024-02-26T14:39:56;11.80;99.90
50570;DHT22;36525;49.398;7.614;2024-02-26T14:42:22;11.80;99.90
50570;DHT22;36525;49.398;7.614;2024-02-26T14:44:50;11.70;99.90
50570;DHT22;36525;49.398;7.614;2024-02-26T14:47:17;11.60;99.90
50570;DHT22;36525;49.398;7.614;2024-02-26T14:52:14;11.50;99.90
50570;DHT22;36525;49.398;7.614;2024-02-26T14:54:41;11.60;99.90
50570;DHT22;36525;49.398;7.614;2024-02-26T14:57:08;11.60;99.90
50570;DHT22;36525;49.398;7.614;2024-02-26T14:59:35;11.60;99.90
50570;DHT22;36525;49.398;7.614;2024-02-26T15:02:03;11.60;99.90
50570;DHT22;36525;49.398;7.614;2024-02-26T15:04:30;11.80;99.90
50570;DHT22;36525;49.398;7.614;2024-02-26T15:06:57;11.90;99.90
50570;DHT22;36525;49.398;7.614;2024-02-26T15:09:24;12.10;99.90
50570;DHT22;36525;49.398;7.614;2024-02-26T15:11:51;12.30;99.90
50570;DHT22;36525;49.398;7.614;2024-02-26T15:14:18;12.40;99.90
50570;DHT22;36525;49.398;7.614;2024-02-26T15:16:44;12.40;99.90
50570;DHT22;36525;49.398;7.614;2024-02-26T15:19:11;12.30;99.90
50570;DHT22;36525;49.398;7.614;2024-02-26T15:21:46;12.20;99.90
50570;DHT22;36525;49.398;7.614;2024-02-26T15:24:13;12.00;99.90
50570;DHT22;36525;49.398;7.614;2024-02-26T15:26:43;11.70;99.90
50570;DHT22;36525;49.398;7.614;2024-02-26T15:29:11;11.60;99.90
50570;DHT22;36525;49.398;7.614;2024-02-26T15:31:38;11.60;99.90
50570;DHT22;36525;49.398;7.614;2024-02-26T15:34:05;11.50;99.90
50570;DHT22;36525;49.398;7.614;2024-02-26T15:36:33;11.50;99.90
50570;DHT22;36525;49.398;7.614;2024-02-26T15:39:00;11.50;99.90
50570;DHT22;36525;49.398;7.614;2024-02-26T15:41:28;11.70;99.90
50570;DHT22;36525;49.398;7.614;2024-02-26T15:43:55;11.70;99.90
50570;DHT22;36525;49.398;7.614;2024-02-26T15:46:22;11.90;99.90
50570;DHT22;36525;49.398;7.614;2024-02-26T15:48:49;12.40;99.90
50570;DHT22;36525;49.398;7.614;2024-02-26T15:51:23;13.00;99.90
50570;DHT22;36525;49.398;7.614;2024-02-26T15:53:53;13.50;99.90
50570;DHT22;36525;49.398;7.614;2024-02-26T15:56:21;13.10;99.90
50570;DHT22;36525;49.398;7.614;2024-02-26T15:58:51;12.90;99.90
50570;DHT22;36525;49.398;7.614;2024-02-26T16:01:18;12.90;99.90